Time;durP1;ratioP1;P1;durP2;ratioP2;P2;SDS_P1;SDS_P2;PMS_P1;PMS_P2;Temp;Humidity;BMP_temperature;BMP_pressure;BME280_temperature;BME280_humidity;BME280_pressure;Samples;Min_cycle;Max_cycle;Signal;HPM_P1;HPM_P2
2022/11/15 00:01:14;;;;;;;9.00;7.88;;;;;;;3.45;100.00;100614.31;5054952;28;20033;-72
2022/11/15 00:03:40;;;;;;;4.93;4.63;;;;;;;3.39;100.00;100612.41;5053530;28;20474;-72
2022/11/15 00:06:05;;;;;;;14.50;3.85;;;;;;;3.32;100.00;100598.47;5054842;28;20462;-72
2022/11/15 00:08:32;;;;;;;5.22;4.63;;;;;;;3.34;100.00;100598.81;5053669;28;20021;-73
2022/11/15 00:10:59;;;;;;;10.15;7.50;;;;;;;3.33;100.00;100586.72;5053630;28;20025;-72
2022/11/15 00:13:25;;;;;;;5.60;5.32;;;;;;;3.34;100.00;100590.34;5053830;28;20025;-73
2022/11/15 00:15:54;;;;;;;5.20;4.60;;;;;;;3.33;100.00;100592.38;5036746;28;20029;-72
2022/11/15 00:18:22;;;;;;;3.92;3.72;;;;;;;3.31;100.00;100586.38;5053374;28;20024;-71
2022/11/15 00:20:47;;;;;;;0.68;0.68;;;;;;;3.29;100.00;100588.81;5054667;28;20021;-72
2022/11/15 00:23:12;;;;;;;5.22;4.93;;;;;;;3.28;100.00;100589.28;5054793;28;20029;-72
2022/11/15 00:25:38;;;;;;;9.02;4.30;;;;;;;3.28;100.00;100584.41;5054527;28;20028;-73
2022/11/15 00:28:03;;;;;;;19.27;8.82;;;;;;;3.24;100.00;100583.69;5052861;28;20041;-72
2022/11/15 00:30:30;;;;;;;9.27;8.35;;;;;;;3.27;100.00;100584.88;5053126;28;20055;-72
2022/11/15 00:32:55;;;;;;;2.42;1.45;;;;;;;3.26;100.00;100578.41;5054226;28;20486;-73
2022/11/15 00:35:22;;;;;;;2.88;2.67;;;;;;;3.26;100.00;100586.88;5054195;28;20048;-72
2022/11/15 00:37:47;;;;;;;7.00;4.03;;;;;;;3.22;100.00;100583.34;5054312;28;20432;-72
2022/11/15 00:40:15;;;;;;;2.80;2.60;;;;;;;3.15;100.00;100573.00;5053463;28;20486;-73
2022/11/15 00:42:41;;;;;;;4.55;4.32;;;;;;;3.16;100.00;100571.75;5054018;28;20474;-72
2022/11/15 00:45:07;;;;;;;8.88;5.07;;;;;;;3.13;100.00;100564.16;5054025;28;20025;-73
2022/11/15 00:47:33;;;;;;;7.05;6.40;;;;;;;3.10;100.00;100565.03;5054305;28;20028;-73
2022/11/15 00:49:59;;;;;;;2.97;2.88;;;;;;;3.09;100.00;100565.47;5054052;28;20533;-73
2022/11/15 00:52:25;;;;;;;7.03;4.50;;;;;;;3.09;100.00;100568.28;5054236;28;20067;-73
2022/11/15 00:54:51;;;;;;;7.47;6.80;;;;;;;3.06;100.00;100555.06;5054241;28;20052;-72
2022/11/15 00:57:17;;;;;;;1.65;1.60;;;;;;;3.08;100.00;100561.06;5053828;28;20056;-73
2022/11/15 00:59:42;;;;;;;9.55;8.73;;;;;;;3.06;100.00;100555.06;5053999;28;20162;-73
2022/11/15 01:02:09;;;;;;;7.63;6.13;;;;;;;3.09;100.00;100565.47;5053746;28;20485;-73
2022/11/15 01:04:35;;;;;;;5.85;4.85;;;;;;;3.09;100.00;100559.81;5054120;28;20054;-73
2022/11/15 01:07:00;;;;;;;9.02;5.13;;;;;;;3.08;100.00;100569.53;5053773;28;20036;-74
2022/11/15 01:09:26;;;;;;;10.70;7.68;;;;;;;3.07;100.00;100559.47;5053759;28;20025;-72
2022/11/15 01:11:53;;;;;;;4.15;3.88;;;;;;;3.06;100.00;100564.31;5053446;28;20120;-72
2022/11/15 01:14:19;;;;;;;8.20;4.75;;;;;;;3.07;100.00;100557.44;5053700;28;20027;-72
2022/11/15 01:16:47;;;;;;;3.17;2.97;;;;;;;3.05;100.00;100559.91;5051895;28;20382;-72
2022/11/15 01:19:13;;;;;;;3.40;3.20;;;;;;;3.03;100.00;100558.75;5053802;28;20021;-72
2022/11/15 01:21:39;;;;;;;2.28;2.20;;;;;;;3.01;100.00;100561.19;5054027;28;20029;-72
2022/11/15 01:24:05;;;;;;;8.48;6.75;;;;;;;2.99;100.00;100547.50;5053603;28;20381;-72
2022/11/15 01:26:39;;;;;;;5.63;5.32;;;;;;;2.93;100.00;100546.47;5052648;28;20032;-72
2022/11/15 01:29:05;;;;;;;1.88;1.77;;;;;;;2.91;100.00;100551.72;5052224;28;20020;-72
2022/11/15 01:31:31;;;;;;;2.33;2.22;;;;;;;2.88;100.00;100543.34;5052475;28;20036;-73
2022/11/15 01:33:57;;;;;;;13.77;4.60;;;;;;;2.92;100.00;100544.06;5052192;28;20025;-72
2022/11/15 01:36:31;;;;;;;1.75;1.73;;;;;;;2.90;100.00;100547.31;5019154;28;20044;-73
2022/11/15 01:38:57;;;;;;;1.08;1.08;;;;;;;2.87;100.00;100539.72;5053513;28;20079;-73
2022/11/15 01:41:25;;;;;;;5.00;4.72;;;;;;;2.85;100.00;100539.34;5052096;28;20100;-73
2022/11/15 01:43:55;;;;;;;1.52;1.50;;;;;;;2.85;100.00;100530.09;5053409;28;20080;-73
2022/11/15 01:46:21;;;;;;;6.10;5.70;;;;;;;2.80;100.00;100522.91;5052595;28;20505;-73
2022/11/15 01:48:49;;;;;;;20.50;11.57;;;;;;;2.77;100.00;100526.63;5053306;28;20075;-73
2022/11/15 01:51:17;;;;;;;2.35;2.20;;;;;;;2.75;100.00;100523.44;5036384;28;20028;-73
2022/11/15 01:53:46;;;;;;;2.22;2.20;;;;;;;2.75;100.00;100524.22;5053381;28;20052;-73
2022/11/15 01:56:18;;;;;;;4.55;4.15;;;;;;;2.77;100.00;100520.97;5056137;28;20109;-73
2022/11/15 01:59:00;;;;;;;2.08;1.98;;;;;;;2.75;100.00;100514.97;5040037;28;20033;-74
2022/11/15 02:01:27;;;;;;;2.63;2.53;;;;;;;2.71;100.00;100512.22;5039750;28;20027;-74
2022/11/15 02:03:59;;;;;;;8.90;5.03;;;;;;;2.69;100.00;100509.03;5055869;28;20098;-72
2022/11/15 02:06:25;;;;;;;3.13;1.75;;;;;;;2.68;100.00;100504.63;5039934;28;20033;-73
2022/11/15 02:08:51;;;;;;;6.13;5.65;;;;;;;2.61;100.00;100490.66;5057058;28;20111;-73
2022/11/15 02:11:17;;;;;;;2.70;2.53;;;;;;;2.64;100.00;100500.28;5057242;28;20459;-72
2022/11/15 02:13:43;;;;;;;4.78;3.97;;;;;;;2.60;100.00;100493.91;5057208;28;20498;-73
2022/11/15 02:16:29;;;;;;;7.07;6.57;;;;;;;2.61;100.00;100496.31;5055921;28;20029;-73
2022/11/15 02:19:32;;;;;;;5.60;3.42;;;;;;;2.60;100.00;100496.72;5055650;28;20025;-72
2022/11/15 02:22:36;;;;;;;3.67;2.72;;;;;;;2.53;100.00;100494.88;5056791;28;20024;-74
2022/11/15 02:25:26;;;;;;;4.20;3.95;;;;;;;2.47;100.00;100490.97;5056982;28;20029;-73
2022/11/15 02:28:17;;;;;;;1.75;1.33;;;;;;;2.44;100.00;100488.22;5056574;28;20037;-73
2022/11/15 02:31:11;;;;;;;1.40;1.38;;;;;;;2.38;100.00;100482.28;5055862;28;20029;-73
2022/11/15 02:33:42;;;;;;;1.13;1.13;;;;;;;2.37;100.00;100479.88;5038794;28;20028;-74
2022/11/15 02:36:36;;;;;;;2.95;2.58;;;;;;;2.37;100.00;100479.88;5055474;28;20025;-73
2022/11/15 02:39:14;;;;;;;7.22;3.60;;;;;;;2.32;100.00;100479.16;5056215;28;20052;-74
2022/11/15 02:41:54;;;;;;;4.07;2.72;;;;;;;2.33;100.00;100471.50;5056338;28;20521;-73
2022/11/15 02:44:32;;;;;;;4.20;2.88;;;;;;;2.31;100.00;100469.09;5056583;28;20481;-74
2022/11/15 02:47:13;;;;;;;3.45;3.30;;;;;;;2.29;100.00;100470.78;5056601;28;20040;-74
2022/11/15 02:49:42;;;;;;;2.35;2.25;;;;;;;2.26;100.00;100469.59;5055343;28;20037;-74
2022/11/15 02:52:09;;;;;;;6.18;5.15;;;;;;;2.25;100.00;100464.38;5055375;28;20064;-74
2022/11/15 02:54:36;;;;;;;2.17;2.05;;;;;;;2.25;100.00;100467.22;5056346;28;20032;-73
2022/11/15 02:57:05;;;;;;;8.68;6.13;;;;;;;2.24;100.00;100462.81;5056365;28;20025;-73
2022/11/15 02:59:47;;;;;;;3.45;3.20;;;;;;;2.26;100.00;100458.31;5038551;28;20036;-73
2022/11/15 03:02:49;;;;;;;8.75;5.47;;;;;;;2.25;100.00;100453.13;5054319;28;20036;-73
2022/11/15 03:05:38;;;;;;;3.78;3.60;;;;;;;2.25;100.00;100451.09;5056077;28;20029;-74
2022/11/15 03:08:17;;;;;;;6.03;5.60;;;;;;;2.23;100.00;100449.94;5056137;28;20078;-74
2022/11/15 03:11:05;;;;;;;2.30;2.10;;;;;;;2.22;100.00;100448.34;5055088;28;20354;-73
2022/11/15 03:13:56;;;;;;;1.70;0.65;;;;;;;2.21;100.00;100453.19;5054675;28;20057;-74
2022/11/15 03:16:37;;;;;;;4.03;3.78;;;;;;;2.20;100.00;100448.78;5056017;28;20036;-73
2022/11/15 03:19:14;;;;;;;2.83;2.72;;;;;;;2.18;100.00;100450.44;5055999;28;20126;-73
2022/11/15 03:21:40;;;;;;;9.05;6.32;;;;;;;2.18;100.00;100453.25;5055600;28;20487;-73
2022/11/15 03:24:07;;;;;;;3.60;3.15;;;;;;;2.17;100.00;100451.66;5055933;28;20040;-73
2022/11/15 03:26:36;;;;;;;3.35;3.05;;;;;;;2.13;100.00;100442.50;5054697;28;20048;-73
2022/11/15 03:29:11;;;;;;;3.85;3.65;;;;;;;2.08;100.00;100440.97;5054554;28;20032;-72
2022/11/15 03:31:47;;;;;;;9.93;5.35;;;;;;;2.06;100.00;100446.22;5038075;28;20386;-74
2022/11/15 03:34:53;;;;;;;2.95;2.78;;;;;;;2.05;100.00;100438.19;5038741;28;20458;-74
2022/11/15 03:37:22;;;;;;;2.53;2.42;;;;;;;2.04;100.00;100434.63;5054440;28;20033;-73
2022/11/15 03:39:49;;;;;;;4.93;4.60;;;;;;;2.06;100.00;100434.97;5055250;28;20043;-74
2022/11/15 03:42:28;;;;;;;15.95;4.38;;;;;;;2.02;100.00;100434.22;5054276;28;20082;-73
2022/11/15 03:45:31;;;;;;;5.63;5.22;;;;;;;1.99;100.00;100431.50;5054150;28;20057;-74
2022/11/15 03:48:02;;;;;;;1.40;1.40;;;;;;;1.92;100.00;100413.50;5036731;28;20039;-72
2022/11/15 03:50:28;;;;;;;2.58;2.25;;;;;;;1.92;100.00;100416.31;5037766;28;20047;-73
2022/11/15 03:53:02;;;;;;;1.60;1.50;;;;;;;2.01;100.00;100418.53;5053953;28;20437;-74
2022/11/15 03:55:28;;;;;;;3.40;3.15;;;;;;;2.00;100.00;100419.78;5054102;28;20029;-72
2022/11/15 03:57:59;;;;;;;0.63;0.63;;;;;;;2.01;100.00;100429.81;5037113;28;20033;-73
2022/11/15 04:00:27;;;;;;;4.65;3.05;;;;;;;2.02;100.00;100422.97;5053869;28;20033;-72
2022/11/15 04:02:52;;;;;;;5.70;3.38;;;;;;;1.99;100.00;100423.03;5036839;28;20390;-73
2022/11/15 04:05:20;;;;;;;0.82;0.82;;;;;;;1.98;100.00;100429.91;5054928;28;20025;-73
2022/11/15 04:07:46;;;;;;;8.73;6.28;;;;;;;1.95;100.00;100423.09;5053568;28;20052;-73
2022/11/15 04:10:13;;;;;;;1.73;1.73;;;;;;;1.85;100.00;100418.44;5055158;28;20386;-73
2022/11/15 04:12:42;;;;;;;2.75;2.55;;;;;;;1.91;100.00;100423.16;5053653;28;20119;-73
2022/11/15 04:15:12;;;;;;;1.38;1.38;;;;;;;1.92;100.00;100426.78;5052902;28;20411;-74
2022/11/15 04:17:38;;;;;;;1.08;1.08;;;;;;;1.88;100.00;100423.22;5053439;28;20137;-73
2022/11/15 04:25:44;;;;;;;14.18;10.00;;;;;;;1.82;100.00;100420.09;5053662;28;20110;-73
2022/11/15 04:28:24;;;;;;;1.63;1.63;;;;;;;1.80;100.00;100413.31;5054330;28;20025;-72
2022/11/15 04:30:51;;;;;;;1.80;1.77;;;;;;;1.83;100.00;100413.25;5054812;28;20501;-73
2022/11/15 04:33:16;;;;;;;2.33;2.22;;;;;;;1.82;100.00;100416.50;5054383;28;20045;-73
2022/11/15 04:35:43;;;;;;;5.97;5.47;;;;;;;1.81;100.00;100414.91;5054362;28;20028;-73
2022/11/15 04:38:17;;;;;;;6.07;4.47;;;;;;;1.75;100.00;100400.50;5054219;28;20103;-74
2022/11/15 04:40:42;;;;;;;2.10;1.92;;;;;;;1.76;100.00;100407.75;5053649;28;20060;-73
2022/11/15 04:43:09;;;;;;;0.80;0.80;;;;;;;1.75;100.00;100411.00;5054063;28;20041;-73
2022/11/15 04:45:34;;;;;;;3.40;3.10;;;;;;;1.71;100.00;100405.41;5054254;28;20029;-74
2022/11/15 04:48:00;;;;;;;7.47;3.10;;;;;;;1.71;100.00;100398.97;5054092;28;20040;-73
2022/11/15 04:50:25;;;;;;;6.60;1.85;;;;;;;1.71;100.00;100399.78;5054181;28;20402;-74
2022/11/15 04:53:00;;;;;;;6.38;2.63;;;;;;;1.71;100.00;100402.59;5052968;28;20025;-73
2022/11/15 04:55:26;;;;;;;3.60;3.40;;;;;;;1.66;100.00;100397.47;5053822;28;20025;-73
2022/11/15 04:58:02;;;;;;;5.85;2.47;;;;;;;1.70;100.00;100406.63;5054162;28;20028;-73
2022/11/15 05:00:28;;;;;;;8.00;6.05;;;;;;;1.70;100.00;100401.00;5036478;28;20021;-73
2022/11/15 05:05:37;;;;;;;2.00;1.95;;;;;;;1.64;100.00;100390.69;5053791;28;20078;-73
2022/11/15 05:08:04;;;;;;;5.50;3.67;;;;;;;1.67;100.00;100384.97;5053869;28;20025;-74
2022/11/15 05:10:30;;;;;;;8.93;8.07;;;;;;;1.69;100.00;100396.63;5052535;28;20386;-73
2022/11/15 05:12:56;;;;;;;2.72;2.63;;;;;;;1.67;100.00;100401.06;5053817;28;20036;-73
2022/11/15 05:15:21;;;;;;;5.55;3.95;;;;;;;1.64;100.00;100399.13;5052322;28;20025;-73
2022/11/15 05:17:47;;;;;;;1.58;1.58;;;;;;;1.67;100.00;100406.72;5052283;28;20035;-73
2022/11/15 05:20:13;;;;;;;2.65;2.47;;;;;;;1.66;100.00;100397.47;5053535;28;20044;-73
2022/11/15 05:22:39;;;;;;;3.38;3.25;;;;;;;1.55;100.00;100376.38;5053517;28;20028;-72
2022/11/15 05:25:08;;;;;;;10.70;2.85;;;;;;;1.56;100.00;100375.91;5052353;28;20036;-71
2022/11/15 05:27:34;;;;;;;15.35;6.55;;;;;;;1.55;100.00;100385.63;5053676;28;20021;-73
2022/11/15 05:30:00;;;;;;;6.13;4.10;;;;;;;1.49;100.00;100376.06;5053746;28;20025;-73
2022/11/15 05:32:25;;;;;;;3.83;3.58;;;;;;;1.53;100.00;100387.25;5053362;28;20028;-73
2022/11/15 05:34:53;;;;;;;2.50;2.35;;;;;;;1.58;100.00;100381.13;5053568;28;20370;-73
2022/11/15 05:37:19;;;;;;;3.17;2.80;;;;;;;1.61;100.00;100389.50;5052029;28;20036;-73
2022/11/15 05:39:45;;;;;;;1.85;1.77;;;;;;;1.63;100.00;100384.25;5051824;28;20033;-73
2022/11/15 05:42:14;;;;;;;4.88;4.20;;;;;;;1.58;100.00;100383.94;5053055;28;20049;-74
2022/11/15 05:44:44;;;;;;;1.27;1.17;;;;;;;1.59;100.00;100374.28;5052132;28;20029;-73
2022/11/15 05:47:15;;;;;;;9.77;4.60;;;;;;;1.63;100.00;100383.44;5051995;28;20055;-75
2022/11/15 05:49:43;;;;;;;3.40;3.20;;;;;;;1.60;100.00;100387.13;5052331;28;20029;-74
2022/11/15 05:52:11;;;;;;;6.47;5.90;;;;;;;1.56;100.00;100375.91;5052002;28;20486;-75
2022/11/15 05:54:39;;;;;;;6.53;5.00;;;;;;;1.57;100.00;100383.16;5052148;28;20025;-78
2022/11/15 05:57:05;;;;;;;2.20;2.13;;;;;;;1.55;100.00;100379.97;5052270;28;20363;-74
2022/11/15 05:59:32;;;;;;;4.28;4.07;;;;;;;1.54;100.00;100380.41;5035566;28;20029;-74
2022/11/15 06:01:59;;;;;;;2.72;2.55;;;;;;;1.53;100.00;100382.41;5034970;28;20036;-74
2022/11/15 06:04:24;;;;;;;9.30;5.10;;;;;;;1.51;100.00;100376.41;5053494;28;20056;-73
2022/11/15 06:06:51;;;;;;;5.45;5.07;;;;;;;1.54;100.00;100388.84;5053001;28;20467;-74
2022/11/15 06:09:16;;;;;;;2.45;1.48;;;;;;;1.55;100.00;100379.97;5052014;28;20032;-72
2022/11/15 06:11:41;;;;;;;2.35;2.30;;;;;;;1.51;100.00;100386.88;5051782;28;20078;-74
2022/11/15 06:14:07;;;;;;;2.17;2.08;;;;;;;1.56;100.00;100392.00;5052983;28;20029;-74
2022/11/15 06:16:34;;;;;;;11.88;5.25;;;;;;;1.57;100.00;100385.16;5052923;28;20029;-73
2022/11/15 06:19:00;;;;;;;3.70;3.47;;;;;;;1.56;100.00;100386.38;5053216;28;20020;-73
2022/11/15 06:21:27;;;;;;;4.60;3.85;;;;;;;1.55;100.00;100384.81;5052837;28;20110;-74
2022/11/15 06:23:56;;;;;;;1.70;1.70;;;;;;;1.56;100.00;100380.75;5052421;28;20029;-74
2022/11/15 06:26:21;;;;;;;16.15;3.50;;;;;;;1.57;100.00;100385.16;5052336;28;20021;-75
2022/11/15 06:28:46;;;;;;;4.32;3.97;;;;;;;1.61;100.00;100371.81;5052389;28;20378;-73
2022/11/15 06:31:12;;;;;;;2.15;2.05;;;;;;;1.68;100.00;100375.31;5052577;28;20033;-73
2022/11/15 06:33:38;;;;;;;4.43;3.50;;;;;;;1.74;100.00;100384.06;5050698;28;20103;-73
2022/11/15 06:36:05;;;;;;;7.78;5.47;;;;;;;1.71;100.00;100373.63;5051422;28;20056;-73
2022/11/15 06:38:31;;;;;;;4.45;4.00;;;;;;;1.81;100.00;100381.09;5055320;28;20463;-73
2022/11/15 06:41:04;;;;;;;2.50;2.40;;;;;;;1.87;100.00;100385.81;5055842;28;20107;-73
2022/11/15 06:43:30;;;;;;;6.00;2.72;;;;;;;1.88;100.00;100381.78;5036148;28;20029;-73
2022/11/15 06:45:55;;;;;;;2.45;2.35;;;;;;;1.96;100.00;100384.44;5052793;28;20474;-72
2022/11/15 06:48:20;;;;;;;1.85;1.75;;;;;;;1.99;100.00;100387.22;5054306;28;20104;-73
2022/11/15 06:50:57;;;;;;;0.60;0.60;;;;;;;2.05;100.00;100393.91;5052868;28;20059;-73
2022/11/15 06:53:24;;;;;;;1.50;1.50;;;;;;;2.11;100.00;100391.38;5054434;28;20100;-72
2022/11/15 06:55:49;;;;;;;7.90;7.35;;;;;;;2.16;100.00;100396.53;5053906;28;20021;-72
2022/11/15 06:58:15;;;;;;;7.40;5.28;;;;;;;2.15;100.00;100395.72;5053789;28;20100;-72
2022/11/15 07:00:40;;;;;;;2.28;2.10;;;;;;;2.20;100.00;100394.41;5052579;28;20028;-74
2022/11/15 07:03:06;;;;;;;8.00;4.05;;;;;;;2.21;100.00;100410.91;5054023;28;20073;-73
2022/11/15 07:05:31;;;;;;;3.22;3.03;;;;;;;2.27;100.00;100414.03;5052545;28;20506;-71
2022/11/15 07:07:57;;;;;;;6.13;5.53;;;;;;;2.35;100.00;100404.19;5053755;28;20103;-72
2022/11/15 07:10:24;;;;;;;11.23;10.48;;;;;;;2.43;100.00;100404.84;5051571;28;20784;-72
2022/11/15 07:12:53;;;;;;;11.20;3.35;;;;;;;2.51;100.00;100403.44;5040869;28;20025;-72
2022/11/15 07:15:22;;;;;;;1.77;1.73;;;;;;;2.55;100.00;100413.41;5054519;28;20017;-73
2022/11/15 07:17:48;;;;;;;0.98;0.98;;;;;;;2.58;100.00;100414.59;5054433;28;20024;-73
2022/11/15 07:20:14;;;;;;;3.58;2.83;;;;;;;2.62;100.00;100416.09;5055537;28;20055;-73
2022/11/15 07:22:42;;;;;;;3.08;2.72;;;;;;;2.69;100.00;100417.97;5055872;28;20029;-77
2022/11/15 07:25:08;;;;;;;6.45;4.10;;;;;;;2.75;100.00;100419.03;5056396;28;20036;-78
2022/11/15 07:27:34;;;;;;;2.92;2.55;;;;;;;2.78;100.00;100421.00;5057626;28;20033;-79
2022/11/15 07:29:59;;;;;;;2.88;2.70;;;;;;;2.81;100.00;100416.50;5054891;28;20033;-79
2022/11/15 07:32:25;;;;;;;4.15;3.05;;;;;;;2.83;100.00;100417.66;5037789;28;20131;-76
2022/11/15 07:34:51;;;;;;;4.53;4.25;;;;;;;2.88;100.00;100408.69;5039233;28;20152;-75
2022/11/15 07:37:17;;;;;;;4.78;4.40;;;;;;;2.91;100.00;100410.63;5051663;28;20028;-77
2022/11/15 07:39:43;;;;;;;1.17;1.15;;;;;;;2.94;100.00;100398.44;5055532;28;20032;-75
2022/11/15 07:44:53;;;;;;;1.45;1.45;;;;;;;3.10;100.00;100392.03;5055302;28;20063;-73
2022/11/15 07:47:18;;;;;;;4.63;1.98;;;;;;;3.16;100.00;100396.72;5054930;28;20056;-72
2022/11/15 07:49:45;;;;;;;1.48;1.48;;;;;;;3.25;100.00;100392.50;5055018;28;20021;-71
2022/11/15 07:52:11;;;;;;;3.03;2.83;;;;;;;3.35;100.00;100394.25;5054774;28;20096;-72
2022/11/15 07:54:36;;;;;;;4.82;4.60;;;;;;;3.36;100.00;100384.56;5054007;28;20102;-76
2022/11/15 07:57:02;;;;;;;5.88;5.47;;;;;;;3.57;100.00;100387.66;5054892;28;20029;-74
2022/11/15 07:59:29;;;;;;;4.50;4.15;;;;;;;4.02;100.00;100389.69;5055208;28;20050;-75
2022/11/15 08:01:54;;;;;;;2.33;2.22;;;;;;;4.52;100.00;100389.06;5054849;28;20354;-74
2022/11/15 08:04:20;;;;;;;3.70;3.25;;;;;;;4.83;100.00;100389.34;5055091;28;20512;-76
2022/11/15 08:06:45;;;;;;;3.60;3.33;;;;;;;4.97;100.00;100386.06;5054264;28;20039;-75
2022/11/15 08:09:12;;;;;;;6.70;5.55;;;;;;;4.97;100.00;100380.41;5054153;28;20470;-75
2022/11/15 08:11:38;;;;;;;4.38;4.10;;;;;;;4.90;100.00;100380.63;5052974;28;20123;-75
2022/11/15 08:14:03;;;;;;;5.18;4.78;;;;;;;4.90;100.00;100372.16;5054693;28;20033;-75
2022/11/15 08:16:28;;;;;;;7.47;3.83;;;;;;;5.08;100.00;100378.03;5054935;28;20029;-75
2022/11/15 08:18:54;;;;;;;5.40;4.93;;;;;;;5.38;100.00;100371.78;5054514;28;20134;-77
2022/11/15 08:21:21;;;;;;;9.23;6.90;;;;;;;5.53;100.00;100363.59;5054489;28;20090;-76
2022/11/15 08:23:46;;;;;;;4.50;2.83;;;;;;;5.58;100.00;100362.22;5054211;28;20115;-76
2022/11/15 08:26:12;;;;;;;14.45;6.75;;;;;;;5.34;100.00;100333.47;5053482;28;20430;-75
2022/11/15 08:28:38;;;;;;;7.00;3.50;;;;;;;5.43;100.00;100356.25;5053169;28;20024;-79
2022/11/15 08:31:04;;;;;;;3.88;3.70;;;;;;;5.46;100.00;100351.69;5053280;28;20032;-76
2022/11/15 08:33:32;;;;;;;3.35;2.20;;;;;;;5.38;100.00;100351.16;5054531;28;20025;-75
2022/11/15 08:36:00;;;;;;;7.03;2.97;;;;;;;5.38;100.00;100351.16;5054555;28;20167;-79
2022/11/15 08:38:26;;;;;;;5.85;4.05;;;;;;;5.40;100.00;100356.38;5054156;28;20495;-76
2022/11/15 08:40:53;;;;;;;5.13;4.72;;;;;;;5.36;100.00;100348.75;5052869;28;20052;-75
2022/11/15 08:43:18;;;;;;;4.70;3.55;;;;;;;5.36;100.00;100350.78;5052734;28;20458;-74
2022/11/15 08:45:44;;;;;;;5.50;5.07;;;;;;;5.32;100.00;100345.25;5053760;28;20025;-71
2022/11/15 08:48:11;;;;;;;6.68;3.50;;;;;;;5.38;100.00;100356.81;5050726;28;20405;-76
2022/11/15 08:50:36;;;;;;;6.10;5.65;;;;;;;5.41;100.00;100336.06;5034041;28;20033;-74
2022/11/15 08:53:07;;;;;;;2.97;2.70;;;;;;;5.43;100.00;100344.91;5038250;28;20029;-74
2022/11/15 08:55:32;;;;;;;7.65;5.03;;;;;;;5.52;100.00;100342.16;5053724;28;20131;-73
2022/11/15 08:57:58;;;;;;;3.90;1.55;;;;;;;5.61;100.00;100341.44;5054176;28;20025;-73
2022/11/15 09:00:23;;;;;;;4.40;3.28;;;;;;;5.57;100.00;100333.06;5053432;28;20039;-73
2022/11/15 09:02:49;;;;;;;5.93;4.72;;;;;;;5.64;100.00;100332.03;5053639;28;20107;-73
2022/11/15 09:05:15;;;;;;;21.80;7.03;;;;;;;5.72;100.00;100339.03;5052534;28;20116;-74
2022/11/15 09:07:40;;;;;;;18.63;4.78;;;;;;;5.81;100.00;100341.94;5053837;28;20064;-76
2022/11/15 09:10:06;;;;;;;2.65;2.50;;;;;;;5.89;100.00;100334.78;5053229;28;20444;-76
2022/11/15 09:12:33;;;;;;;5.78;5.47;;;;;;;6.00;100.00;100346.50;5052720;28;20374;-76
2022/11/15 09:14:58;;;;;;;6.00;5.55;;;;;;;6.04;100.00;100337.91;5053607;28;20355;-73
2022/11/15 09:17:24;;;;;;;10.00;6.22;;;;;;;6.11;100.00;100338.41;5053650;28;20095;-73
2022/11/15 09:19:49;;;;;;;4.40;3.30;;;;;;;6.21;100.00;100345.75;5053396;28;20029;-72
2022/11/15 09:22:15;;;;;;;3.97;3.13;;;;;;;6.29;100.00;100351.16;5053689;28;20025;-71
2022/11/15 09:24:40;;;;;;;5.38;3.05;;;;;;;6.30;100.00;100336.53;5051953;28;20041;-72
2022/11/15 09:27:06;;;;;;;9.77;6.10;;;;;;;6.41;100.00;100347.47;5052358;28;20028;-74
2022/11/15 09:29:32;;;;;;;6.70;6.10;;;;;;;6.50;100.00;100348.31;5053528;28;20048;-73
2022/11/15 09:31:57;;;;;;;4.25;3.97;;;;;;;6.61;100.00;100342.25;5053674;28;20474;-75
2022/11/15 09:34:23;;;;;;;6.40;4.03;;;;;;;6.70;100.00;100330.94;5053364;28;20021;-72
2022/11/15 09:36:48;;;;;;;3.22;3.00;;;;;;;6.78;100.00;100334.28;5053301;28;20570;-73
2022/11/15 09:39:14;;;;;;;13.75;5.85;;;;;;;6.88;100.00;100339.53;5053592;28;20024;-74
2022/11/15 09:41:55;;;;;;;4.60;3.72;;;;;;;6.97;100.00;100331.06;5052904;28;20044;-75
2022/11/15 09:44:43;;;;;;;7.88;5.40;;;;;;;7.09;100.00;100323.66;5053098;28;20036;-72
2022/11/15 09:47:38;;;;;;;2.90;2.70;;;;;;;7.21;100.00;100333.34;5052176;28;20049;-73
2022/11/15 09:50:13;;;;;;;14.10;7.30;;;;;;;7.29;100.00;100326.09;5052203;28;20060;-71
2022/11/15 09:52:42;;;;;;;7.10;6.63;;;;;;;7.35;100.00;100321.38;5053284;28;20124;-71
2022/11/15 09:55:10;;;;;;;13.75;4.22;;;;;;;7.42;100.00;100321.09;5051647;28;20025;-74
2022/11/15 09:57:44;;;;;;;3.55;3.22;;;;;;;7.49;100.00;100313.03;5051995;28;20060;-67
2022/11/15 10:00:18;;;;;;;3.03;2.72;;;;;;;7.58;100.00;100309.41;5052086;28;20175;-67
2022/11/15 10:03:02;;;;;;;8.40;4.93;;;;;;;7.67;100.00;100303.72;5053031;28;20024;-66
2022/11/15 10:05:43;;;;;;;2.28;2.15;;;;;;;7.76;100.00;100289.53;5039897;28;20028;-67
2022/11/15 10:08:11;;;;;;;8.00;3.60;;;;;;;7.85;100.00;100289.53;5038246;28;20052;-69
2022/11/15 10:11:01;;;;;;;4.68;4.35;;;;;;;7.96;100.00;100281.28;5053336;28;20036;-68
2022/11/15 10:13:30;;;;;;;6.32;4.72;;;;;;;8.05;100.00;100283.34;5033453;28;20059;-69
2022/11/15 10:16:03;;;;;;;3.20;3.03;;;;;;;8.14;100.00;100279.69;5035730;28;20079;-68
2022/11/15 10:19:00;;;;;;;4.30;3.95;;;;;;;8.24;100.00;100275.59;5036703;28;20091;-68
2022/11/15 10:21:38;;;;;;;5.65;3.45;;;;;;;8.33;100.00;100279.19;5035415;28;20083;-70
2022/11/15 10:24:11;;;;;;;1.98;1.83;;;;;;;8.41;100.00;100276.03;5036296;28;20033;-68
2022/11/15 10:26:37;;;;;;;3.33;3.08;;;;;;;8.47;100.00;100269.19;5047120;28;20033;-68
2022/11/15 10:29:03;;;;;;;2.47;2.35;;;;;;;8.55;100.00;100269.66;5056481;28;20072;-68
2022/11/15 10:31:29;;;;;;;4.18;1.42;;;;;;;8.61;100.00;100262.03;5056565;28;20151;-69
2022/11/15 10:34:18;;;;;;;3.92;3.25;;;;;;;8.53;100.00;100230.25;5056200;28;20076;-69
2022/11/15 10:37:03;;;;;;;3.85;3.55;;;;;;;8.73;100.00;100249.63;5055418;28;20032;-68
2022/11/15 10:39:29;;;;;;;6.05;3.92;;;;;;;8.89;100.00;100252.09;5055512;28;20087;-71
2022/11/15 10:41:55;;;;;;;3.50;2.90;;;;;;;8.94;100.00;100245.75;5038747;28;20060;-73
2022/11/15 10:44:23;;;;;;;1.30;1.27;;;;;;;9.01;100.00;100236.81;5056524;28;20033;-72
2022/11/15 10:46:54;;;;;;;1.95;1.85;;;;;;;9.06;100.00;100235.38;5055228;28;20385;-71
2022/11/15 10:49:31;;;;;;;5.90;3.33;;;;;;;9.13;100.00;100232.16;5056412;28;20103;-74
2022/11/15 10:52:11;;;;;;;1.02;1.00;;;;;;;9.18;100.00;100229.44;5057346;28;20055;-75
2022/11/15 10:55:17;;;;;;;3.80;2.95;;;;;;;9.22;100.00;100232.09;5056275;28;20028;-74
2022/11/15 10:57:50;;;;;;;1.95;1.90;;;;;;;9.33;100.00;100234.41;5045083;28;20037;-70
2022/11/15 11:00:22;;;;;;;1.08;1.08;;;;;;;9.36;100.00;100224.88;5054674;28;20067;-71
2022/11/15 11:03:25;;;;;;;4.40;3.72;;;;;;;9.40;100.00;100217.69;5055633;28;20428;-72
2022/11/15 11:06:05;;;;;;;0.93;0.93;;;;;;;9.51;100.00;100214.28;5055394;28;20055;-71
2022/11/15 11:08:31;;;;;;;1.65;1.55;;;;;;;9.42;100.00;100200.13;5055854;28;20047;-71
2022/11/15 11:10:59;;;;;;;2.88;2.00;;;;;;;9.56;100.00;100216.47;5054759;28;20116;-73
2022/11/15 11:13:28;;;;;;;1.88;1.77;;;;;;;9.61;100.00;100216.59;5056142;28;20056;-71
2022/11/15 11:16:15;;;;;;;2.15;1.95;;;;;;;9.63;100.00;100205.50;5055806;28;20025;-72
2022/11/15 11:18:49;;;;;;;1.95;1.85;;;;;;;9.65;100.00;100211.47;5054742;28;20033;-71
2022/11/15 11:21:28;;;;;;;2.35;2.25;;;;;;;9.70;100.00;100196.53;5053198;28;20082;-71
2022/11/15 11:24:12;;;;;;;1.55;1.48;;;;;;;9.75;100.00;100191.44;5050539;28;20083;-72
2022/11/15 11:26:44;;;;;;;2.97;2.28;;;;;;;9.78;100.00;100191.28;5053249;28;20041;-71
2022/11/15 11:29:37;;;;;;;4.47;1.48;;;;;;;9.79;100.00;100186.34;5053263;28;20059;-70
2022/11/15 11:32:05;;;;;;;1.58;0.60;;;;;;;9.87;100.00;100187.53;5053217;28;20386;-70
2022/11/15 11:34:40;;;;;;;1.60;1.60;;;;;;;9.94;100.00;100185.06;5051840;28;20539;-68
2022/11/15 11:37:20;;;;;;;1.33;1.25;;;;;;;9.99;100.00;100184.38;5053173;28;20501;-68
2022/11/15 11:39:55;;;;;;;1.70;1.60;;;;;;;10.07;100.00;100173.38;5052477;28;20036;-68
2022/11/15 11:42:32;;;;;;;2.13;2.00;;;;;;;9.83;100.00;100135.59;5054995;28;20049;-68
2022/11/15 11:45:01;;;;;;;0.85;0.85;;;;;;;10.13;100.00;100165.69;5055135;28;20147;-68
2022/11/15 11:47:38;;;;;;;0.30;0.30;;;;;;;10.20;100.00;100164.50;5055033;28;20090;-68
2022/11/15 11:50:12;;;;;;;8.35;2.05;;;;;;;10.28;100.00;100163.63;5055046;28;20151;-68